Time;durP1;ratioP1;P1;durP2;ratioP2;P2;SDS_P1;SDS_P2;PMS_P1;PMS_P2;Temp;Humidity;BMP_temperature;BMP_pressure;BME280_temperature;BME280_humidity;BME280_pressure;Samples;Min_cycle;Max_cycle;Signal;HPM_P1;HPM_P2
2023/10/23 00:00:25;;;;;;;19.23;8.00;;;;;;;18.68;74.87;94963.34;5072779;28;20454;-77
2023/10/23 00:02:52;;;;;;;19.83;9.03;;;;;;;18.70;75.14;94971.97;5072906;28;20498;-77
2023/10/23 00:05:19;;;;;;;25.70;8.03;;;;;;;18.76;75.70;94973.09;5072972;28;20933;-77
2023/10/23 00:07:47;;;;;;;21.20;8.70;;;;;;;18.82;74.92;94970.56;5073218;28;20488;-77
2023/10/23 00:10:14;;;;;;;26.50;8.93;;;;;;;18.70;76.33;94961.34;5073220;28;21015;-77
2023/10/23 00:12:40;;;;;;;28.27;10.13;;;;;;;18.67;77.00;94966.19;5037464;28;20929;-76
2023/10/23 00:15:08;;;;;;;23.53;8.87;;;;;;;18.74;75.93;94957.31;5037256;28;20956;-77
2023/10/23 00:17:35;;;;;;;25.77;9.90;;;;;;;18.81;76.01;94962.78;5073084;28;20443;-77
2023/10/23 00:20:02;;;;;;;28.80;8.80;;;;;;;18.90;74.65;94964.34;5072945;28;20803;-77
2023/10/23 00:22:29;;;;;;;21.47;8.90;;;;;;;18.82;74.27;94959.94;5072748;28;20446;-77
2023/10/23 00:24:57;;;;;;;20.50;8.30;;;;;;;18.82;74.65;94967.09;5072958;28;20441;-77
2023/10/23 00:27:24;;;;;;;24.40;8.30;;;;;;;18.85;75.55;94956.09;5072491;28;20517;-77
2023/10/23 00:29:52;;;;;;;18.33;7.87;;;;;;;18.89;76.20;94960.03;5072764;28;20458;-77
2023/10/23 00:32:18;;;;;;;30.83;10.17;;;;;;;18.88;74.38;94948.59;5037622;28;20440;-77
2023/10/23 00:34:45;;;;;;;17.63;8.53;;;;;;;18.94;73.60;94957.66;5073134;28;20449;-77
2023/10/23 00:37:12;;;;;;;27.13;8.17;;;;;;;18.94;74.83;94957.66;5072736;28;21204;-77
2023/10/23 00:39:39;;;;;;;29.50;8.60;;;;;;;18.88;73.72;94964.53;5072573;28;20845;-77
2023/10/23 00:42:08;;;;;;;34.57;8.97;;;;;;;18.75;74.51;94963.47;5072719;28;20491;-77
2023/10/23 00:44:34;;;;;;;23.93;9.57;;;;;;;18.81;75.02;94963.59;5072397;28;20995;-77
2023/10/23 00:47:01;;;;;;;22.20;8.33;;;;;;;18.90;73.89;94959.03;5072764;28;20484;-77
2023/10/23 00:49:28;;;;;;;24.87;9.17;;;;;;;18.89;73.37;94965.34;5070431;28;20844;-77
2023/10/23 00:51:55;;;;;;;22.63;8.40;;;;;;;18.88;74.77;94966.38;5072794;28;20445;-77
2023/10/23 00:54:24;;;;;;;22.50;9.10;;;;;;;18.85;74.69;94962.22;5072450;28;20440;-77
2023/10/23 00:56:51;;;;;;;22.63;7.43;;;;;;;18.80;74.95;94964.59;5072403;28;20462;-77
2023/10/23 00:59:21;;;;;;;32.00;9.57;;;;;;;18.80;75.04;94961.13;5072349;28;20453;-77
2023/10/23 01:01:48;;;;;;;21.40;8.10;;;;;;;18.81;75.17;94962.78;5072690;28;20447;-77
2023/10/23 01:04:15;;;;;;;24.97;8.40;;;;;;;18.93;76.15;94965.81;5072503;28;20780;-77
2023/10/23 01:06:42;;;;;;;22.50;7.90;;;;;;;18.92;74.55;94970.31;5072531;28;20858;-76
2023/10/23 01:09:09;;;;;;;13.17;8.80;;;;;;;18.84;74.45;94957.09;5072425;28;20457;-76
2023/10/23 01:11:36;;;;;;;19.40;8.00;;;;;;;18.91;75.68;94957.19;5072316;28;20511;-75
2023/10/23 01:14:02;;;;;;;24.03;8.20;;;;;;;18.97;75.68;94953.81;5072169;28;20443;-77
2023/10/23 01:16:30;;;;;;;20.53;8.60;;;;;;;19.02;75.75;94954.94;5075322;28;20479;-76
2023/10/23 01:18:57;;;;;;;20.57;8.70;;;;;;;19.06;75.38;94958.88;5075798;28;20808;-76
2023/10/23 01:21:24;;;;;;;25.73;8.17;;;;;;;19.12;74.25;94950.19;5075882;28;20445;-77
2023/10/23 01:23:52;;;;;;;26.27;8.70;;;;;;;19.13;74.74;94949.19;5076024;28;20478;-77
2023/10/23 01:26:20;;;;;;;29.20;9.47;;;;;;;19.21;73.73;94955.44;5075619;28;20919;-77
2023/10/23 01:28:47;;;;;;;30.83;8.87;;;;;;;19.24;74.50;94947.09;5075766;28;20451;-77
2023/10/23 01:31:14;;;;;;;27.33;9.03;;;;;;;19.27;73.60;94957.34;5075745;28;20445;-77
2023/10/23 01:33:41;;;;;;;32.53;8.80;;;;;;;19.27;73.82;94958.19;5075598;28;20445;-77
2023/10/23 01:36:08;;;;;;;27.50;8.67;;;;;;;19.23;73.54;94961.41;5040198;28;20492;-77
2023/10/23 01:38:35;;;;;;;28.90;8.33;;;;;;;19.22;73.63;94955.25;5075357;28;20942;-77
2023/10/23 01:41:02;;;;;;;24.63;9.07;;;;;;;19.21;74.58;94952.78;5056869;28;20449;-77
2023/10/23 01:43:30;;;;;;;26.43;8.10;;;;;;;19.23;72.54;94948.09;5075680;28;20438;-77
2023/10/23 01:45:58;;;;;;;25.77;8.33;;;;;;;19.22;73.47;94949.09;5075413;28;20445;-77
2023/10/23 01:48:25;;;;;;;19.07;7.20;;;;;;;19.21;73.68;94953.59;5075730;28;20502;-77
2023/10/23 01:50:52;;;;;;;31.43;7.37;;;;;;;19.19;73.61;94942.31;5056742;28;20869;-77
2023/10/23 01:53:18;;;;;;;22.97;8.13;;;;;;;19.15;73.32;94957.00;5075247;28;20447;-77
2023/10/23 01:55:45;;;;;;;26.70;8.40;;;;;;;19.18;74.02;94965.44;5075326;28;20455;-77
2023/10/23 01:58:12;;;;;;;30.03;8.00;;;;;;;19.21;74.60;94961.56;5075267;28;20449;-77
2023/10/23 02:00:40;;;;;;;27.27;9.30;;;;;;;19.22;73.04;94957.09;5075205;28;20450;-77
2023/10/23 02:03:07;;;;;;;22.77;7.93;;;;;;;19.19;74.09;94951.13;5075349;28;20441;-77
2023/10/23 02:05:34;;;;;;;29.13;8.53;;;;;;;19.22;73.53;94960.56;5074978;28;20446;-77
2023/10/23 02:08:01;;;;;;;36.23;8.90;;;;;;;19.24;72.78;94968.38;5074896;28;20553;-77
2023/10/23 02:10:28;;;;;;;18.97;7.20;;;;;;;19.21;72.54;94968.72;5075146;28;20438;-77
2023/10/23 02:12:55;;;;;;;22.27;9.40;;;;;;;19.19;73.19;94972.41;5072984;28;20432;-77
2023/10/23 02:15:22;;;;;;;26.23;7.97;;;;;;;19.07;72.59;94973.00;5075329;28;20486;-77
2023/10/23 02:17:50;;;;;;;20.10;7.70;;;;;;;19.07;73.60;94975.66;5056216;28;20445;-77
2023/10/23 02:20:17;;;;;;;28.10;8.23;;;;;;;19.03;73.35;94972.53;5074778;28;20767;-77
2023/10/23 02:22:43;;;;;;;19.70;7.00;;;;;;;18.99;74.41;94970.41;5074801;28;20512;-77
2023/10/23 02:25:10;;;;;;;28.63;9.10;;;;;;;18.82;73.30;94967.09;5074828;28;20786;-77
2023/10/23 02:27:37;;;;;;;15.80;7.00;;;;;;;18.84;74.41;94973.06;5074726;28;20513;-77
2023/10/23 02:30:05;;;;;;;25.07;9.33;;;;;;;18.74;73.95;94975.09;5074910;28;20440;-77
2023/10/23 02:32:31;;;;;;;21.63;8.40;;;;;;;18.77;76.88;94972.09;5074523;28;20829;-77
2023/10/23 02:35:00;;;;;;;27.77;8.30;;;;;;;18.88;74.90;94977.00;5074609;28;20472;-77
2023/10/23 02:37:26;;;;;;;22.33;8.17;;;;;;;18.89;74.59;94983.97;5055660;28;20946;-77
2023/10/23 02:39:53;;;;;;;20.63;9.03;;;;;;;18.85;74.88;94977.38;5072555;28;20433;-77
2023/10/23 02:42:20;;;;;;;20.17;7.70;;;;;;;18.89;74.53;94970.69;5074641;28;20449;-77
2023/10/23 02:44:47;;;;;;;24.20;9.10;;;;;;;18.94;74.14;94972.78;5055927;28;20455;-77
2023/10/23 02:47:13;;;;;;;28.53;8.90;;;;;;;18.85;74.28;94964.06;5074144;28;20492;-77
2023/10/23 02:49:40;;;;;;;23.47;9.07;;;;;;;18.73;74.81;94960.97;5072107;28;20438;-77
2023/10/23 02:52:08;;;;;;;26.47;8.10;;;;;;;18.82;75.03;94956.44;5074131;28;20797;-77
2023/10/23 02:54:35;;;;;;;25.47;8.50;;;;;;;18.64;74.21;94966.56;5074252;28;20453;-77
2023/10/23 02:57:02;;;;;;;23.80;8.07;;;;;;;18.66;74.16;94975.19;5074199;28;20453;-77
2023/10/23 02:59:31;;;;;;;17.83;7.57;;;;;;;18.62;75.31;94973.84;5074001;28;20933;-76
2023/10/23 03:01:58;;;;;;;26.57;8.43;;;;;;;18.34;75.57;94962.91;5074128;28;20452;-77
2023/10/23 03:04:25;;;;;;;17.77;8.60;;;;;;;18.20;76.66;94959.16;5074422;28;20443;-76
2023/10/23 03:06:52;;;;;;;23.53;8.10;;;;;;;18.23;76.86;94972.94;5073895;28;20450;-76
2023/10/23 03:09:20;;;;;;;22.83;8.40;;;;;;;18.24;76.69;94971.09;5073976;28;20456;-76
2023/10/23 03:11:46;;;;;;;26.40;9.40;;;;;;;18.27;76.32;94968.09;5055334;28;20856;-77
2023/10/23 03:14:13;;;;;;;23.40;8.47;;;;;;;18.20;76.81;94972.44;5071702;28;20542;-77
2023/10/23 03:16:40;;;;;;;21.37;9.23;;;;;;;18.26;77.41;94969.94;5073917;28;20473;-77
2023/10/23 03:19:07;;;;;;;22.53;8.30;;;;;;;18.31;77.82;94969.41;5055009;28;20443;-77
2023/10/23 03:21:33;;;;;;;23.37;8.73;;;;;;;18.34;76.77;94969.03;5038438;28;20477;-77
2023/10/23 03:24:00;;;;;;;29.43;9.07;;;;;;;18.36;76.50;94966.22;5074039;28;20497;-77
2023/10/23 03:26:28;;;;;;;19.40;8.57;;;;;;;18.37;76.17;94970.53;5073541;28;20444;-77
2023/10/23 03:28:55;;;;;;;22.07;8.33;;;;;;;18.43;76.51;94975.97;5073597;28;20927;-77
2023/10/23 03:31:22;;;;;;;20.37;9.23;;;;;;;18.49;75.32;94969.94;5073500;28;20451;-77
2023/10/23 03:33:49;;;;;;;21.03;8.27;;;;;;;18.47;75.76;94976.44;5073844;28;20443;-76
2023/10/23 03:36:17;;;;;;;21.33;8.47;;;;;;;18.44;75.00;94974.94;5054690;28;20457;-77
2023/10/23 03:38:43;;;;;;;20.50;7.97;;;;;;;18.35;75.51;94972.53;5073039;28;20542;-77
2023/10/23 03:41:10;;;;;;;24.50;9.00;;;;;;;18.23;75.95;94970.28;5073360;28;20439;-77
2023/10/23 03:43:39;;;;;;;21.63;9.00;;;;;;;18.21;76.30;94966.13;5073290;28;20437;-77
2023/10/23 03:46:06;;;;;;;25.90;8.93;;;;;;;18.24;75.86;94960.47;5073727;28;20449;-77
2023/10/23 03:48:35;;;;;;;27.23;7.77;;;;;;;18.31;76.52;94971.22;5073375;28;20491;-77
2023/10/23 03:51:04;;;;;;;22.27;8.53;;;;;;;18.33;77.06;94975.38;5073470;28;20479;-77
2023/10/23 03:53:37;;;;;;;22.93;7.93;;;;;;;18.16;76.01;94979.09;5073269;28;20767;-77
2023/10/23 03:56:06;;;;;;;18.13;7.80;;;;;;;18.07;77.52;94983.63;5073251;28;20485;-76
2023/10/23 03:58:43;;;;;;;23.03;7.93;;;;;;;18.09;77.73;94976.31;5073141;28;20439;-76
2023/10/23 04:01:12;;;;;;;22.67;10.40;;;;;;;18.13;78.20;94974.97;5021524;28;20451;-77
2023/10/23 04:03:39;;;;;;;30.40;9.83;;;;;;;18.11;77.21;94976.97;5073357;28;20445;-77
2023/10/23 04:06:06;;;;;;;24.23;9.60;;;;;;;18.03;78.02;94968.22;5072817;28;20438;-76
2023/10/23 04:08:33;;;;;;;30.10;7.53;;;;;;;18.03;77.12;94971.72;5073345;28;20485;-77
2023/10/23 04:10:59;;;;;;;17.27;8.17;;;;;;;18.04;77.12;94980.50;5072975;28;20440;-77
2023/10/23 04:13:26;;;;;;;17.70;8.73;;;;;;;17.97;78.10;94975.06;5072095;28;20461;-77
2023/10/23 04:15:54;;;;;;;21.63;8.20;;;;;;;17.98;78.73;94970.59;5072944;28;20566;-77
2023/10/23 04:18:24;;;;;;;24.23;8.80;;;;;;;18.01;77.35;94971.06;5072558;28;20445;-77
2023/10/23 04:20:51;;;;;;;19.97;8.07;;;;;;;17.97;77.50;94969.75;5073036;28;20450;-77
2023/10/23 04:23:17;;;;;;;23.23;8.03;;;;;;;18.03;78.28;94974.38;5072484;28;20449;-77
2023/10/23 04:25:54;;;;;;;14.87;8.53;;;;;;;18.10;80.18;94975.31;5072637;28;20780;-74
2023/10/23 04:28:21;;;;;;;23.80;7.60;;;;;;;18.28;82.14;94983.03;5072537;28;20587;-74
2023/10/23 04:30:48;;;;;;;33.43;8.47;;;;;;;18.49;80.17;94982.38;5072630;28;20444;-74
2023/10/23 04:33:16;;;;;;;19.53;7.97;;;;;;;18.88;80.56;94977.84;5072461;28;20458;-74
2023/10/23 04:35:45;;;;;;;22.30;8.07;;;;;;;19.34;79.32;94982.22;5072537;28;20500;-75
2023/10/23 04:38:11;;;;;;;17.57;6.70;;;;;;;20.13;76.98;94983.38;5072467;28;20854;-74
2023/10/23 04:40:38;;;;;;;26.80;9.20;;;;;;;20.21;71.85;94988.56;5072404;28;20444;-74
2023/10/23 04:43:05;;;;;;;20.07;8.07;;;;;;;20.26;69.29;94993.38;5072854;28;20802;-77
2023/10/23 04:45:32;;;;;;;20.53;9.13;;;;;;;20.16;67.88;94990.16;5072528;28;20760;-77
2023/10/23 04:47:58;;;;;;;22.10;8.00;;;;;;;19.84;68.13;94994.03;5072415;28;20856;-77
2023/10/23 04:50:25;;;;;;;21.60;8.57;;;;;;;19.38;68.77;94996.84;5075632;28;20494;-77
2023/10/23 04:52:53;;;;;;;19.17;8.30;;;;;;;19.18;69.86;94992.03;5076468;28;20512;-76
2023/10/23 04:55:20;;;;;;;30.07;9.70;;;;;;;18.95;70.73;95003.69;5076228;28;20439;-77
2023/10/23 04:57:47;;;;;;;23.00;10.10;;;;;;;18.66;72.11;94999.94;5076285;28;20446;-77
2023/10/23 05:00:15;;;;;;;25.30;9.50;;;;;;;18.52;72.90;95000.66;5076234;28;20441;-77
2023/10/23 05:02:42;;;;;;;21.30;9.50;;;;;;;18.44;73.40;94998.88;5076344;28;20440;-77
2023/10/23 05:05:09;;;;;;;29.20;8.90;;;;;;;18.33;73.92;94999.28;5076325;28;20440;-76
2023/10/23 05:07:36;;;;;;;24.47;8.83;;;;;;;18.33;75.02;95001.94;5076000;28;20476;-76
2023/10/23 05:10:07;;;;;;;22.50;8.20;;;;;;;18.41;75.43;95003.72;5076078;28;20444;-76
2023/10/23 05:12:34;;;;;;;20.17;9.03;;;;;;;18.54;75.00;95001.31;5075702;28;20496;-76
2023/10/23 05:15:01;;;;;;;23.27;8.13;;;;;;;18.65;73.51;95016.06;5073642;28;20494;-78
2023/10/23 05:17:28;;;;;;;31.30;9.33;;;;;;;18.57;73.44;95017.72;5075727;28;20446;-76
2023/10/23 05:19:55;;;;;;;16.70;8.80;;;;;;;18.45;75.72;95005.00;5074881;28;20443;-76
2023/10/23 05:22:22;;;;;;;28.00;10.03;;;;;;;18.14;75.76;95015.63;5075292;28;20442;-76
2023/10/23 05:24:49;;;;;;;29.43;8.37;;;;;;;18.37;77.74;95037.78;5074994;28;20451;-77
2023/10/23 05:27:18;;;;;;;19.77;9.20;;;;;;;18.35;77.56;95021.19;5075470;28;20470;-76
2023/10/23 05:29:45;;;;;;;32.47;8.80;;;;;;;18.25;76.54;95023.22;5075126;28;20583;-76
2023/10/23 05:32:12;;;;;;;23.80;8.90;;;;;;;18.49;81.11;95036.38;5075242;28;20467;-77
2023/10/23 05:34:38;;;;;;;31.83;10.40;;;;;;;18.27;77.10;95018.56;5039741;28;20444;-78
2023/10/23 05:37:05;;;;;;;21.03;8.43;;;;;;;18.24;77.89;95026.91;5074928;28;20835;-79
2023/10/23 05:39:32;;;;;;;29.93;9.60;;;;;;;18.33;80.56;95031.16;5075186;28;20451;-78
2023/10/23 05:41:59;;;;;;;23.43;8.17;;;;;;;18.47;79.80;95027.75;5037400;28;20484;-78
2023/10/23 05:44:27;;;;;;;29.67;8.90;;;;;;;18.57;81.21;95036.34;5074753;28;20807;-79
2023/10/23 05:46:54;;;;;;;25.33;9.27;;;;;;;18.62;78.46;95037.63;5074560;28;20434;-79
2023/10/23 05:49:21;;;;;;;22.67;8.70;;;;;;;18.70;77.83;95030.47;5079566;28;20518;-79
2023/10/23 05:51:48;;;;;;;19.10;10.97;;;;;;;18.64;78.27;95022.38;5077360;28;21014;-79
2023/10/23 05:54:16;;;;;;;29.37;10.07;;;;;;;18.74;81.76;95028.28;5074173;28;20475;-78
2023/10/23 05:56:43;;;;;;;27.33;10.33;;;;;;;18.64;77.54;95025.03;5074153;28;20516;-78
2023/10/23 05:59:10;;;;;;;29.70;9.77;;;;;;;18.51;79.88;95039.69;5074514;28;21004;-78
2023/10/23 06:01:38;;;;;;;36.50;11.60;;;;;;;18.73;81.30;95040.75;5071816;28;20952;-78
2023/10/23 06:04:09;;;;;;;24.10;9.83;;;;;;;18.81;78.44;95048.69;5074553;28;20510;-78
2023/10/23 06:06:35;;;;;;;42.70;12.10;;;;;;;18.79;76.81;95044.53;5073408;28;20514;-78
2023/10/23 06:09:04;;;;;;;31.40;11.40;;;;;;;18.62;77.49;95050.94;5073860;28;20486;-79
2023/10/23 06:11:30;;;;;;;31.80;11.73;;;;;;;18.46;78.16;95043.88;5074166;28;20994;-79
2023/10/23 06:13:57;;;;;;;24.13;10.73;;;;;;;18.43;79.74;95042.38;5061207;28;20441;-78
2023/10/23 06:16:24;;;;;;;26.20;9.90;;;;;;;18.56;83.50;95050.63;5074199;28;20528;-78
2023/10/23 06:18:52;;;;;;;23.07;10.13;;;;;;;18.63;82.30;95039.31;5074465;28;20512;-79
2023/10/23 06:21:19;;;;;;;31.27;12.30;;;;;;;18.64;80.68;95041.81;5074038;28;20794;-78
2023/10/23 06:23:46;;;;;;;24.40;11.10;;;;;;;18.22;77.71;95040.34;5074326;28;20446;-77
2023/10/23 06:26:12;;;;;;;28.07;11.30;;;;;;;18.23;80.01;95049.97;5073902;28;20444;-80
2023/10/23 06:28:39;;;;;;;31.33;10.37;;;;;;;18.28;78.34;95046.78;5052627;28;21027;-78
2023/10/23 06:31:07;;;;;;;22.00;11.90;;;;;;;18.29;79.77;95052.94;5073238;28;20461;-79
2023/10/23 06:33:34;;;;;;;27.20;11.20;;;;;;;18.36;80.80;95054.72;5074189;28;20437;-77
2023/10/23 06:36:04;;;;;;;34.60;11.83;;;;;;;18.47;79.22;95062.28;5073961;28;20445;-79
2023/10/23 06:38:31;;;;;;;41.77;12.37;;;;;;;18.60;80.39;95071.53;5074111;28;20990;-80
2023/10/23 06:41:04;;;;;;;29.87;12.00;;;;;;;18.78;79.21;95077.44;5073640;28;20438;-79
2023/10/23 06:43:31;;;;;;;30.90;13.43;;;;;;;18.77;76.58;95070.47;5073745;28;20437;-79
2023/10/23 06:45:58;;;;;;;24.30;13.43;;;;;;;18.84;77.68;95068.78;5038457;28;20823;-79
2023/10/23 06:48:25;;;;;;;23.70;11.97;;;;;;;18.84;77.17;95068.78;5073390;28;20493;-79
2023/10/23 06:50:52;;;;;;;27.50;9.90;;;;;;;18.85;77.54;95081.06;5073650;28;20936;-79
2023/10/23 06:53:20;;;;;;;24.60;10.17;;;;;;;19.00;79.41;95089.94;5073872;28;20446;-79
2023/10/23 06:55:50;;;;;;;35.27;12.03;;;;;;;19.06;76.78;95091.88;5073211;28;20453;-78
2023/10/23 06:58:17;;;;;;;19.47;10.90;;;;;;;18.93;75.24;95086.31;5073062;28;20779;-79
2023/10/23 07:00:43;;;;;;;28.40;11.40;;;;;;;18.91;76.63;95093.66;5054693;28;20439;-78
2023/10/23 07:03:10;;;;;;;19.27;9.37;;;;;;;19.08;78.93;95097.88;5073546;28;20453;-79
2023/10/23 07:05:37;;;;;;;40.60;12.17;;;;;;;19.07;76.03;95101.50;5073749;28;20812;-79
2023/10/23 07:08:04;;;;;;;23.80;10.17;;;;;;;19.13;77.85;95106.13;5072962;28;20787;-78
2023/10/23 07:10:39;;;;;;;28.40;11.50;;;;;;;19.27;77.88;95098.38;5073109;28;20452;-78
2023/10/23 07:13:06;;;;;;;35.97;12.17;;;;;;;19.12;76.43;95098.34;5022484;28;20438;-78
2023/10/23 07:15:34;;;;;;;33.73;11.27;;;;;;;18.93;76.71;95102.28;5073239;28;20482;-78
2023/10/23 07:18:01;;;;;;;34.67;11.73;;;;;;;19.11;77.94;95100.16;5072440;28;20457;-78
2023/10/23 07:20:27;;;;;;;37.33;11.53;;;;;;;19.04;75.46;95098.38;5073004;28;20449;-78
2023/10/23 07:22:54;;;;;;;34.83;11.73;;;;;;;19.07;76.46;95101.50;5072885;28;20447;-78
2023/10/23 07:25:24;;;;;;;28.37;11.30;;;;;;;19.02;78.66;95092.41;5037426;28;20462;-78
2023/10/23 07:27:55;;;;;;;19.43;11.13;;;;;;;19.27;78.78;95101.03;5072887;28;20445;-77
2023/10/23 07:30:24;;;;;;;24.80;10.77;;;;;;;19.48;79.27;95095.88;5072344;28;20488;-78
2023/10/23 07:32:51;;;;;;;44.47;13.83;;;;;;;19.60;76.49;95091.81;5072811;28;20443;-78
2023/10/23 07:35:18;;;;;;;22.33;11.73;;;;;;;19.70;76.72;95091.56;5072677;28;20439;-78
2023/10/23 07:37:44;;;;;;;29.60;12.33;;;;;;;19.89;76.55;95092.84;5072842;28;20441;-78
2023/10/23 07:40:12;;;;;;;36.13;12.03;;;;;;;20.03;75.31;95092.06;5072751;28;20453;-78
2023/10/23 07:42:39;;;;;;;33.53;10.77;;;;;;;20.04;74.11;95089.22;5072606;28;20960;-77
2023/10/23 07:45:09;;;;;;;20.80;9.87;;;;;;;20.07;73.28;95093.34;5072777;28;20443;-78
2023/10/23 07:47:36;;;;;;;24.27;10.03;;;;;;;20.12;74.88;95080.28;5072311;28;20933;-79
2023/10/23 07:50:04;;;;;;;28.60;10.00;;;;;;;20.13;73.20;95071.28;5072222;28;20569;-79
2023/10/23 07:52:31;;;;;;;40.27;11.37;;;;;;;20.22;73.34;95077.34;5053911;28;20458;-79
2023/10/23 07:54:59;;;;;;;34.80;11.10;;;;;;;20.21;73.79;95076.50;5072305;28;20965;-79
2023/10/23 07:57:27;;;;;;;23.80;12.33;;;;;;;20.29;74.45;95084.44;5072233;28;20488;-79
2023/10/23 07:59:54;;;;;;;23.27;10.47;;;;;;;20.32;73.63;95084.06;5072570;28;20469;-79
2023/10/23 08:02:22;;;;;;;27.53;10.57;;;;;;;20.39;73.97;95081.47;5072373;28;20951;-79
2023/10/23 08:04:49;;;;;;;50.57;13.53;;;;;;;20.38;71.31;95077.16;5053825;28;20480;-79
2023/10/23 08:07:16;;;;;;;47.67;21.20;;;;;;;20.37;72.39;95087.00;5053396;28;20447;-79
2023/10/23 08:09:43;;;;;;;31.10;13.20;;;;;;;20.41;72.00;95084.81;5020816;28;20542;-79
2023/10/23 08:12:09;;;;;;;30.57;10.93;;;;;;;20.45;73.03;95082.59;5052440;28;20462;-79
2023/10/23 08:14:36;;;;;;;29.13;10.50;;;;;;;20.48;72.30;95083.06;5051951;28;20924;-79
2023/10/23 08:17:03;;;;;;;28.17;9.93;;;;;;;20.47;72.23;95088.56;5052476;28;20492;-79
2023/10/23 08:19:31;;;;;;;28.57;10.10;;;;;;;20.48;73.34;95085.72;5049970;28;20438;-79
2023/10/23 08:21:58;;;;;;;47.37;18.30;;;;;;;20.49;72.95;95090.03;5052237;28;20457;-80
2023/10/23 08:24:25;;;;;;;26.73;10.87;;;;;;;20.52;74.21;95087.00;5052391;28;20925;-79
2023/10/23 08:26:52;;;;;;;32.50;12.63;;;;;;;20.58;72.04;95085.44;5071733;28;20450;-79
2023/10/23 08:29:19;;;;;;;34.27;11.53;;;;;;;20.62;72.01;95082.22;5071630;28;20484;-79
2023/10/23 08:31:45;;;;;;;33.73;10.23;;;;;;;20.71;71.30;95085.59;5036590;28;20985;-79
2023/10/23 08:34:12;;;;;;;23.40;9.63;;;;;;;20.79;72.21;95076.66;5072327;28;20861;-79
2023/10/23 08:36:40;;;;;;;32.77;10.20;;;;;;;20.90;72.20;95076.16;5053376;28;20951;-79
2023/10/23 08:39:07;;;;;;;39.67;10.77;;;;;;;21.01;70.49;95073.81;5072212;28;20797;-79
2023/10/23 08:41:36;;;;;;;28.37;10.67;;;;;;;21.13;70.12;95074.16;5072072;28;20443;-79
2023/10/23 08:44:04;;;;;;;35.00;13.20;;;;;;;21.22;69.59;95077.53;5036990;28;20525;-78
2023/10/23 08:46:33;;;;;;;31.37;10.70;;;;;;;21.31;69.42;95079.06;5036420;28;20450;-79
2023/10/23 08:49:00;;;;;;;23.63;9.80;;;;;;;21.44;70.10;95068.53;5071657;28;20486;-79
2023/10/23 08:51:27;;;;;;;28.77;10.50;;;;;;;21.74;69.76;95065.66;5071719;28;20446;-79
2023/10/23 08:54:00;;;;;;;26.37;9.80;;;;;;;22.06;68.31;95067.78;5071988;28;20454;-79
2023/10/23 08:56:28;;;;;;;23.40;11.23;;;;;;;22.26;66.90;95067.88;5071942;28;20442;-79
2023/10/23 08:59:00;;;;;;;34.03;10.53;;;;;;;22.34;67.18;95072.25;5036505;28;20465;-79
2023/10/23 09:01:28;;;;;;;33.07;9.93;;;;;;;22.37;66.69;95071.84;5070251;28;20459;-78
2023/10/23 09:03:55;;;;;;;31.80;10.27;;;;;;;22.33;66.12;95067.91;5071679;28;20939;-79
2023/10/23 09:06:22;;;;;;;26.77;9.40;;;;;;;22.30;64.95;95068.31;5071693;28;20496;-79
2023/10/23 09:08:49;;;;;;;30.17;10.53;;;;;;;22.31;65.69;95059.28;5049015;28;20945;-79
2023/10/23 09:11:17;;;;;;;24.30;10.90;;;;;;;22.40;67.14;95071.44;5059408;28;20440;-79
2023/10/23 09:13:44;;;;;;;16.27;9.13;;;;;;;22.54;66.71;95067.78;5071567;28;20521;-79
2023/10/23 09:16:12;;;;;;;27.73;9.97;;;;;;;22.71;65.60;95063.75;5071514;28;20484;-78
2023/10/23 09:18:49;;;;;;;25.23;9.43;;;;;;;22.83;64.49;95064.84;5071297;28;20440;-78
2023/10/23 09:21:16;;;;;;;33.87;9.93;;;;;;;23.00;64.61;95061.81;5071559;28;20443;-78
2023/10/23 09:23:54;;;;;;;30.33;10.70;;;;;;;23.18;64.92;95056.72;5071425;28;20940;-76
2023/10/23 09:26:22;;;;;;;17.43;8.47;;;;;;;23.39;68.80;95056.50;5071379;28;20479;-74
2023/10/23 09:28:52;;;;;;;30.27;9.37;;;;;;;23.48;65.06;95055.31;5071321;28;20437;-74
2023/10/23 09:31:19;;;;;;;23.73;9.90;;;;;;;23.56;63.28;95051.63;5071666;28;20945;-74
2023/10/23 09:33:46;;;;;;;19.53;8.97;;;;;;;23.68;65.28;95052.63;5071195;28;20446;-74
2023/10/23 09:36:13;;;;;;;22.37;10.37;;;;;;;23.76;61.49;95056.97;5071763;28;20437;-74
2023/10/23 09:38:42;;;;;;;33.63;11.60;;;;;;;23.55;62.01;95046.44;5074960;28;20446;-77
2023/10/23 09:41:09;;;;;;;29.13;10.83;;;;;;;23.51;63.87;95046.03;5074778;28;20866;-79
2023/10/23 09:43:45;;;;;;;22.83;9.70;;;;;;;23.36;62.34;95051.56;5075013;28;20805;-78
2023/10/23 09:46:12;;;;;;;36.37;11.20;;;;;;;23.20;62.62;95043.94;5074895;28;20438;-77
2023/10/23 09:48:41;;;;;;;28.20;11.23;;;;;;;22.95;63.42;95045.53;5074778;28;20450;-78
2023/10/23 09:51:12;;;;;;;29.30;10.20;;;;;;;22.80;63.75;95040.31;5074908;28;20494;-78
2023/10/23 09:53:40;;;;;;;25.97;9.87;;;;;;;22.62;64.66;95043.56;5074967;28;20446;-77
2023/10/23 09:56:08;;;;;;;22.77;10.03;;;;;;;22.63;65.01;95041.72;5074601;28;20448;-79
2023/10/23 09:58:43;;;;;;;29.37;9.60;;;;;;;22.80;65.44;95035.78;5074253;28;20442;-78
2023/10/23 10:01:11;;;;;;;28.30;10.10;;;;;;;22.77;64.95;95030.84;5074509;28;20438;-78
2023/10/23 10:03:42;;;;;;;37.50;11.30;;;;;;;22.72;65.07;95027.94;5074535;28;20964;-77
2023/10/23 10:06:14;;;;;;;30.47;10.23;;;;;;;22.73;64.86;95029.59;5074879;28;20457;-78
2023/10/23 10:08:46;;;;;;;28.60;10.80;;;;;;;22.84;64.23;95031.75;5055719;28;20486;-78
2023/10/23 10:11:14;;;;;;;28.60;9.70;;;;;;;22.70;64.33;95024.66;5074458;28;20486;-78
2023/10/23 10:13:43;;;;;;;28.27;10.67;;;;;;;22.77;65.34;95014.78;5074299;28;20513;-78
2023/10/23 10:16:12;;;;;;;24.73;9.93;;;;;;;22.80;65.65;95017.06;5074435;28;20991;-78
2023/10/23 10:18:42;;;;;;;22.77;9.40;;;;;;;22.79;64.81;95006.56;5074280;28;20449;-78
2023/10/23 10:21:13;;;;;;;29.00;9.30;;;;;;;22.82;65.16;95006.19;5074187;28;20482;-78
2023/10/23 10:23:41;;;;;;;24.33;9.37;;;;;;;22.74;64.85;95001.00;5074254;28;20501;-78
2023/10/23 10:26:08;;;;;;;23.17;8.23;;;;;;;22.74;64.89;95001.00;5038790;28;20455;-79
2023/10/23 10:28:38;;;;;;;19.00;8.87;;;;;;;22.53;65.55;94997.44;5074145;28;20787;-78
2023/10/23 10:31:06;;;;;;;24.97;9.90;;;;;;;22.53;65.70;94992.06;5074071;28;20487;-78
2023/10/23 10:33:33;;;;;;;28.70;10.30;;;;;;;22.51;66.12;94998.66;5055240;28;20447;-78
2023/10/23 10:36:03;;;;;;;25.63;10.03;;;;;;;22.54;65.36;95008.94;5074016;28;20440;-78
2023/10/23 10:38:31;;;;;;;38.43;12.40;;;;;;;22.44;65.17;95000.50;5073909;28;20536;-78
2023/10/23 10:40:59;;;;;;;29.60;11.47;;;;;;;22.38;65.79;94988.75;5074165;28;20782;-78
2023/10/23 10:43:30;;;;;;;32.93;11.90;;;;;;;22.43;65.38;94993.50;5074041;28;20493;-78
2023/10/23 10:45:57;;;;;;;25.97;10.90;;;;;;;22.29;65.75;94989.97;5073949;28;20443;-78
2023/10/23 10:48:26;;;;;;;27.90;11.73;;;;;;;22.33;65.73;94985.88;5073810;28;20445;-78
2023/10/23 10:50:55;;;;;;;20.10;10.60;;;;;;;22.47;67.63;94981.38;5073906;28;20487;-79
2023/10/23 10:53:26;;;;;;;28.43;11.63;;;;;;;22.53;67.53;94984.06;5038439;28;20448;-78
2023/10/23 10:55:52;;;;;;;37.57;12.37;;;;;;;22.63;66.57;94981.00;5073657;28;20455;-78
2023/10/23 10:58:21;;;;;;;30.13;11.57;;;;;;;22.74;66.09;94983.09;5073709;28;20859;-78
2023/10/23 11:00:58;;;;;;;26.60;10.57;;;;;;;22.83;65.09;94971.19;5073351;28;20459;-78
2023/10/23 11:03:27;;;;;;;32.80;11.20;;;;;;;22.87;65.73;94971.63;5073403;28;20486;-79
2023/10/23 11:05:54;;;;;;;24.60;11.53;;;;;;;22.79;64.55;94961.06;5073452;28;20441;-79
2023/10/23 11:08:21;;;;;;;27.10;11.80;;;;;;;22.74;63.82;94961.69;5073570;28;20520;-79
2023/10/23 11:10:51;;;;;;;26.37;10.80;;;;;;;22.74;64.83;94956.34;5073342;28;20495;-78
2023/10/23 11:13:18;;;;;;;31.50;11.63;;;;;;;22.69;64.71;94964.16;5073161;28;20449;-78
2023/10/23 11:15:46;;;;;;;36.47;10.97;;;;;;;22.74;64.94;94963.53;5037787;28;20475;-78
2023/10/23 11:18:13;;;;;;;24.60;11.37;;;;;;;22.76;65.08;94962.31;5073251;28;20449;-78
2023/10/23 11:20:45;;;;;;;32.37;11.70;;;;;;;22.76;65.34;94962.31;5073346;28;20447;-78
2023/10/23 11:23:14;;;;;;;34.57;11.40;;;;;;;22.85;65.14;94954.97;5073044;28;20535;-78